Time;durP1;ratioP1;P1;durP2;ratioP2;P2;SDS_P1;SDS_P2;PMS_P1;PMS_P2;Temp;Humidity;BMP_temperature;BMP_pressure;BME280_temperature;BME280_humidity;BME280_pressure;Samples;Min_cycle;Max_cycle;Signal;HPM_P1;HPM_P2
2023/04/08 04:32:53;;;;;;;;;15.50;9.25;;;;;10.85;56.10;101872.53;5092369;27;45455;-71
2023/04/08 04:35:18;;;;;;;;;8.75;8.75;;;;;10.89;56.46;101887.59;5075374;28;45389;-71
2023/04/08 04:37:44;;;;;;;;;6.00;4.00;;;;;10.87;56.42;101887.66;5076114;28;45397;-71
2023/04/08 04:40:10;;;;;;;;;8.25;7.50;;;;;10.90;56.62;101900.97;5076180;27;45928;-70
2023/04/08 04:42:35;;;;;;;;;8.50;7.75;;;;;10.87;56.69;101890.34;5093392;27;45406;-71
2023/04/08 04:45:01;;;;;;;;;9.75;9.75;;;;;10.86;56.43;101912.72;5096559;27;45422;-69
2023/04/08 04:47:26;;;;;;;;;10.75;9.25;;;;;10.74;56.40;101901.44;5088303;27;45245;-70
2023/04/08 04:49:51;;;;;;;;;7.75;7.75;;;;;10.77;56.63;101915.66;5075303;28;45378;-70
2023/04/08 04:52:17;;;;;;;;;9.00;8.25;;;;;10.71;56.83;101917.66;5094077;27;45256;-70
2023/04/08 04:54:42;;;;;;;;;7.50;6.25;;;;;10.73;56.81;101923.81;5096456;27;45391;-70
2023/04/08 04:57:08;;;;;;;;;9.50;8.00;;;;;10.65;57.25;101912.44;5077808;27;45339;-70
2023/04/08 04:59:33;;;;;;;;;6.25;6.25;;;;;10.65;57.08;101932.09;5096063;27;46856;-71
2023/04/08 05:01:58;;;;;;;;;6.25;5.00;;;;;10.67;56.73;101932.06;5096107;27;45264;-71
2023/04/08 05:04:25;;;;;;;;;5.25;5.25;;;;;10.66;56.52;101933.84;5096499;27;45319;-71
2023/04/08 05:06:50;;;;;;;;;6.25;6.25;;;;;10.63;56.71;101935.75;5095951;27;45235;-71
2023/04/08 05:09:15;;;;;;;;;8.00;5.75;;;;;10.65;57.13;101944.63;5096077;27;45748;-71
2023/04/08 05:11:41;;;;;;;;;9.00;8.00;;;;;10.55;56.96;101926.09;5095884;27;47941;-71
2023/04/08 05:14:06;;;;;;;;;11.75;7.75;;;;;10.55;57.18;101930.56;5096161;27;45344;-71
2023/04/08 05:16:32;;;;;;;;;8.00;8.00;;;;;10.59;57.00;101940.31;5095962;27;45396;-70
2023/04/08 05:18:57;;;;;;;;;4.75;4.50;;;;;10.53;57.13;101938.69;5096306;27;45455;-72
2023/04/08 05:21:23;;;;;;;;;8.50;8.00;;;;;10.45;56.76;101934.44;5097529;27;45507;-71
2023/04/08 05:23:51;;;;;;;;;9.00;9.00;;;;;10.49;57.16;101950.38;5062753;27;45354;-70
2023/04/08 05:26:17;;;;;;;;;8.00;7.75;;;;;10.48;56.90;101947.75;5098923;27;45505;-71
2023/04/08 05:28:43;;;;;;;;;10.25;9.00;;;;;10.41;57.01;101949.72;5097962;27;46111;-71
2023/04/08 05:31:08;;;;;;;;;9.00;8.50;;;;;10.39;56.75;101948.88;5078635;27;45323;-71
2023/04/08 05:33:33;;;;;;;;;11.00;9.50;;;;;10.43;57.25;101958.59;5075943;28;45157;-71
2023/04/08 05:35:59;;;;;;;;;12.00;10.50;;;;;10.44;57.09;101956.81;5075436;28;45516;-72
2023/04/08 05:38:24;;;;;;;;;13.75;9.75;;;;;10.33;56.95;101937.44;5075381;28;45422;-70
2023/04/08 05:40:50;;;;;;;;;5.75;5.75;;;;;10.47;56.90;101968.31;5091561;27;45252;-71
2023/04/08 05:43:15;;;;;;;;;15.75;12.00;;;;;10.41;57.39;101962.22;5096105;27;45329;-71
2023/04/08 05:45:41;;;;;;;;;10.00;10.00;;;;;10.42;57.78;101962.19;5094819;27;45547;-71
2023/04/08 05:48:06;;;;;;;;;14.00;11.25;;;;;10.41;57.30;101972.97;5095552;27;46195;-71
2023/04/08 05:50:34;;;;;;;;;11.00;10.00;;;;;10.40;57.38;101972.06;5092536;27;52602;-70
2023/04/08 05:52:59;;;;;;;;;15.00;12.75;;;;;10.44;57.17;101980.94;5049549;27;45436;-70
2023/04/08 05:55:25;;;;;;;;;14.00;11.75;;;;;10.46;57.27;101981.78;5095386;27;45356;-69
2023/04/08 05:57:50;;;;;;;;;12.25;12.25;;;;;10.48;57.05;101986.16;5095437;27;46891;-71
2023/04/08 06:00:16;;;;;;;;;11.75;11.75;;;;;10.45;57.40;101974.66;5095238;27;48420;-72
2023/04/08 06:02:41;;;;;;;;;12.75;12.50;;;;;10.54;56.82;101993.19;5095994;27;45345;-70
2023/04/08 06:05:07;;;;;;;;;9.00;9.00;;;;;10.47;57.17;101978.16;5095578;27;46827;-70
2023/04/08 06:07:33;;;;;;;;;14.75;11.50;;;;;10.55;56.88;101992.25;5095616;27;46050;-70
2023/04/08 06:09:58;;;;;;;;;14.50;11.25;;;;;10.53;57.06;101984.25;5095370;27;45860;-70
2023/04/08 06:12:24;;;;;;;;;10.50;10.50;;;;;10.59;56.93;102001.97;5095628;27;45237;-70
2023/04/08 06:14:53;;;;;;;;;11.50;11.50;;;;;10.56;57.45;101984.16;5095001;27;45276;-70
2023/04/08 06:17:20;;;;;;;;;11.00;10.00;;;;;10.59;56.67;101994.81;5095322;27;45515;-72
2023/04/08 06:19:45;;;;;;;;;11.50;10.50;;;;;10.65;56.81;102000.94;5094940;27;45386;-72
2023/04/08 06:22:10;;;;;;;;;15.00;13.25;;;;;10.64;56.62;101992.00;5095349;27;45304;-70
2023/04/08 06:24:36;;;;;;;;;14.00;14.00;;;;;10.64;56.60;101989.31;5094597;27;52072;-71
2023/04/08 06:27:01;;;;;;;;;18.50;15.00;;;;;10.67;56.42;101993.72;5095114;27;46279;-72
2023/04/08 06:29:28;;;;;;;;;13.50;12.75;;;;;10.65;56.63;101998.25;5092053;27;45274;-72
2023/04/08 06:31:54;;;;;;;;;15.25;14.75;;;;;10.63;56.59;101984.91;5073221;28;45308;-71
2023/04/08 06:34:19;;;;;;;;;19.25;15.75;;;;;10.60;56.20;101976.94;5074229;28;45671;-75
2023/04/08 06:36:45;;;;;;;;;19.00;17.50;;;;;10.67;56.53;101991.94;5076118;28;46026;-71
2023/04/08 06:39:10;;;;;;;;;24.00;17.25;;;;;10.71;56.20;101998.09;5083096;27;45302;-73
2023/04/08 06:41:36;;;;;;;;;13.25;13.25;;;;;10.71;56.09;102003.47;5095213;27;45255;-74
2023/04/08 06:44:01;;;;;;;;;17.25;16.00;;;;;10.76;55.82;102010.47;5094623;27;45506;-74
2023/04/08 06:46:26;;;;;;;;;19.00;16.00;;;;;10.77;55.91;102000.63;5076433;27;46291;-75
2023/04/08 06:48:52;;;;;;;;;13.00;13.00;;;;;10.92;56.18;102025.22;5095080;27;45432;-74
2023/04/08 06:51:17;;;;;;;;;17.50;15.75;;;;;10.96;55.71;102042.13;5086704;27;45692;-74
2023/04/08 06:53:42;;;;;;;;;21.25;17.75;;;;;10.92;55.85;102033.28;5074402;28;45497;-73
2023/04/08 06:56:08;;;;;;;;;18.50;15.25;;;;;10.99;55.84;102040.25;5074289;28;45318;-77
2023/04/08 06:58:33;;;;;;;;;19.50;17.75;;;;;10.86;55.54;102014.69;5076017;28;45444;-80
2023/04/08 07:01:00;;;;;;;;;20.00;17.25;;;;;11.10;55.49;102058.75;5077820;28;45327;-76
2023/04/08 07:03:25;;;;;;;;;13.25;13.25;;;;;11.14;54.90;102048.81;5079603;27;45288;-77
2023/04/08 07:05:51;;;;;;;;;17.75;14.75;;;;;11.16;55.24;102047.84;5098133;27;45413;-78
2023/04/08 07:08:17;;;;;;;;;14.75;12.25;;;;;11.16;55.05;102049.63;5098610;27;45486;-76
2023/04/08 07:10:42;;;;;;;;;16.25;13.25;;;;;11.19;55.01;102053.13;5098646;27;45399;-75
2023/04/08 07:13:07;;;;;;;;;16.50;14.75;;;;;11.19;54.81;102049.56;5098375;27;45630;-74
2023/04/08 07:15:33;;;;;;;;;18.50;17.25;;;;;11.13;54.90;102047.06;5097674;27;45403;-78
2023/04/08 07:17:58;;;;;;;;;15.50;12.75;;;;;11.22;55.06;102062.91;5097611;27;45313;-75
2023/04/08 07:20:24;;;;;;;;;18.00;16.25;;;;;11.23;54.83;102062.84;5098300;27;45268;-76
2023/04/08 07:22:50;;;;;;;;;20.25;16.00;;;;;11.25;55.17;102052.06;5097599;27;45234;-79
2023/04/08 07:25:15;;;;;;;;;15.75;14.50;;;;;11.27;55.32;102053.78;5079436;27;48053;-77
2023/04/08 07:27:41;;;;;;;;;12.75;12.75;;;;;11.33;54.54;102058.97;5097595;27;45367;-75
2023/04/08 07:30:07;;;;;;;;;15.75;15.50;;;;;11.38;54.77;102054.38;5087366;27;45388;-77
2023/04/08 07:32:33;;;;;;;;;14.00;14.00;;;;;11.33;54.56;102045.56;5081446;27;45228;-76
2023/04/08 07:35:00;;;;;;;;;18.25;16.50;;;;;11.42;54.26;102055.16;5077136;27;46510;-76
2023/04/08 07:37:26;;;;;;;;;26.75;17.25;;;;;11.41;54.77;102053.38;5077015;28;45571;-74
2023/04/08 07:39:51;;;;;;;;;16.00;14.75;;;;;11.50;54.34;102058.50;5077141;27;45474;-76
2023/04/08 07:42:17;;;;;;;;;15.25;13.50;;;;;11.54;54.66;102065.56;5097391;27;45371;-76
2023/04/08 07:44:43;;;;;;;;;17.00;17.00;;;;;11.55;54.31;102058.38;5097381;27;45989;-76
2023/04/08 07:47:08;;;;;;;;;15.25;15.25;;;;;11.62;54.52;102059.97;5097466;27;45369;-75
2023/04/08 07:49:33;;;;;;;;;17.50;16.25;;;;;11.55;54.18;102042.28;5097427;27;45369;-76
2023/04/08 07:51:59;;;;;;;;;23.00;16.25;;;;;11.63;54.24;102056.34;5082378;27;45283;-76
2023/04/08 07:54:24;;;;;;;;;21.50;17.25;;;;;11.49;53.76;102023.63;5076987;28;45266;-76
2023/04/08 07:56:50;;;;;;;;;17.25;14.75;;;;;11.73;54.01;102072.16;5076816;28;45355;-76
2023/04/08 07:59:15;;;;;;;;;19.25;17.75;;;;;11.73;54.01;102072.16;5076840;28;45424;-75
2023/04/08 08:01:40;;;;;;;;;20.25;16.50;;;;;11.71;53.97;102062.38;5076396;28;49876;-78
2023/04/08 08:04:06;;;;;;;;;17.25;14.25;;;;;11.68;53.97;102049.03;5076939;28;45359;-76
2023/04/08 08:06:31;;;;;;;;;16.50;11.25;;;;;11.83;53.53;102075.47;5076903;28;45184;-75
2023/04/08 08:08:57;;;;;;;;;14.25;14.00;;;;;11.84;53.49;102073.66;5076919;28;45330;-76
2023/04/08 08:11:22;;;;;;;;;17.50;17.00;;;;;11.75;53.69;102053.31;5076459;28;45339;-76
2023/04/08 08:13:47;;;;;;;;;21.00;18.25;;;;;11.89;53.55;102069.03;5077135;28;45322;-75
2023/04/08 08:16:13;;;;;;;;;16.75;15.50;;;;;11.87;53.56;102076.28;5072883;27;45841;-77
2023/04/08 08:18:40;;;;;;;;;20.50;16.75;;;;;11.90;53.38;102079.75;5097114;27;45524;-76
2023/04/08 08:21:05;;;;;;;;;16.75;16.75;;;;;11.83;53.13;102061.16;5096786;27;45424;-77
2023/04/08 08:23:31;;;;;;;;;17.00;15.75;;;;;11.81;53.25;102065.72;5096657;27;45647;-75
2023/04/08 08:26:08;;;;;;;;;20.25;20.25;;;;;11.75;53.04;102056.88;5096758;27;45334;-76
2023/04/08 08:28:34;;;;;;;;;18.25;15.25;;;;;11.91;53.95;102077.94;5078242;27;45387;-76
2023/04/08 08:31:01;;;;;;;;;15.50;15.50;;;;;11.76;53.94;102052.41;5075714;27;45624;-76
2023/04/08 08:33:26;;;;;;;;;17.75;14.50;;;;;11.99;54.34;102081.28;5076098;28;45339;-75
2023/04/08 08:35:52;;;;;;;;;18.00;18.00;;;;;12.07;54.50;102076.56;5076103;28;45223;-77
2023/04/08 08:38:17;;;;;;;;;21.50;16.00;;;;;12.10;53.62;102081.81;5058627;28;45321;-76
2023/04/08 08:40:44;;;;;;;;;17.75;15.25;;;;;12.17;53.45;102085.19;5092050;27;49736;-76
2023/04/08 08:43:10;;;;;;;;;13.50;12.25;;;;;12.12;53.60;102072.78;5096652;27;45406;-76
2023/04/08 08:45:40;;;;;;;;;19.00;15.50;;;;;12.21;53.63;102068.03;5096339;27;45397;-76
2023/04/08 08:48:07;;;;;;;;;12.75;12.75;;;;;12.28;53.20;102078.56;5096976;27;45340;-77
2023/04/08 08:50:33;;;;;;;;;17.50;15.50;;;;;12.30;53.45;102074.00;5093916;27;45394;-77
2023/04/08 08:52:58;;;;;;;;;16.75;16.75;;;;;12.38;53.29;102073.78;5076063;28;45402;-77
2023/04/08 08:55:23;;;;;;;;;17.00;17.00;;;;;12.37;53.69;102059.44;5078044;27;45394;-77
2023/04/08 08:57:50;;;;;;;;;19.50;15.75;;;;;12.48;52.99;102075.25;5096903;27;45309;-77
2023/04/08 09:00:16;;;;;;;;;16.50;16.25;;;;;12.50;53.49;102076.06;5096758;27;45388;-78
2023/04/08 09:02:41;;;;;;;;;15.50;15.50;;;;;12.45;53.25;102057.38;5078761;27;48482;-77
2023/04/08 09:05:07;;;;;;;;;18.75;17.00;;;;;12.61;52.74;102073.00;5097061;27;45532;-77
2023/04/08 09:07:40;;;;;;;;;15.75;14.75;;;;;12.57;52.25;102056.09;5097148;27;45333;-79
2023/04/08 09:10:06;;;;;;;;;16.00;16.00;;;;;12.69;52.15;102073.63;5096921;27;45452;-77
2023/04/08 09:12:32;;;;;;;;;20.25;18.75;;;;;12.72;51.68;102082.50;5096718;27;45479;-75
2023/04/08 09:15:08;;;;;;;;;15.75;15.75;;;;;12.78;52.46;102089.47;5096844;27;45409;-75
2023/04/08 09:17:35;;;;;;;;;15.50;15.50;;;;;12.80;51.77;102083.13;5096545;27;45440;-76
2023/04/08 09:20:10;;;;;;;;;13.50;11.00;;;;;12.91;52.03;102085.44;5095877;27;45607;-77
2023/04/08 09:23:02;;;;;;;;;19.75;15.75;;;;;12.96;51.49;102077.19;5095496;27;45533;-76
2023/04/08 09:25:32;;;;;;;;;12.50;12.50;;;;;12.95;51.02;102076.31;5075086;27;45765;-77
2023/04/08 09:27:58;;;;;;;;;17.00;12.00;;;;;12.94;51.35;102071.88;5077888;27;45338;-76
2023/04/08 09:30:26;;;;;;;;;18.75;15.00;;;;;12.96;51.54;102072.69;5085644;27;45426;-76
2023/04/08 09:32:54;;;;;;;;;19.00;15.25;;;;;12.91;51.35;102049.56;5075163;28;46213;-76
2023/04/08 09:35:20;;;;;;;;;18.75;14.25;;;;;13.12;51.55;102084.69;5075247;28;45331;-76
2023/04/08 09:37:46;;;;;;;;;17.50;15.75;;;;;13.18;51.88;102084.50;5075290;28;45463;-75
2023/04/08 09:40:14;;;;;;;;;16.25;16.25;;;;;13.09;51.45;102062.41;5086092;27;45243;-75
2023/04/08 09:42:43;;;;;;;;;20.25;15.25;;;;;13.23;51.10;102087.94;5095543;27;45494;-75
2023/04/08 09:45:09;;;;;;;;;10.00;10.00;;;;;13.05;51.36;102045.47;5095474;27;45247;-75
2023/04/08 09:47:49;;;;;;;;;13.75;11.00;;;;;13.35;50.90;102088.44;5095799;27;45231;-74
2023/04/08 09:50:18;;;;;;;;;22.25;18.75;;;;;13.35;50.73;102089.31;5095429;27;45278;-77
2023/04/08 09:52:49;;;;;;;;;13.50;13.50;;;;;13.38;50.35;102091.88;5082240;27;46207;-77
2023/04/08 09:55:20;;;;;;;;;13.75;13.25;;;;;13.41;50.09;102091.78;5077148;27;46111;-76
2023/04/08 09:57:51;;;;;;;;;19.75;13.75;;;;;13.42;50.09;102084.56;5095914;27;45354;-77
2023/04/08 10:00:17;;;;;;;;;16.00;14.25;;;;;13.39;50.85;102074.78;5095247;27;45353;-76
2023/04/08 10:02:55;;;;;;;;;16.00;15.00;;;;;13.49;50.42;102088.81;5095612;27;45781;-75
2023/04/08 10:05:21;;;;;;;;;13.00;11.00;;;;;13.44;50.55;102070.09;5095305;27;45204;-76
2023/04/08 10:07:49;;;;;;;;;14.75;14.25;;;;;13.58;50.73;102092.03;5095547;27;45206;-76
2023/04/08 10:10:15;;;;;;;;;14.25;13.50;;;;;13.68;50.66;102099.78;5095032;27;45385;-77
2023/04/08 10:12:40;;;;;;;;;13.50;11.50;;;;;13.71;50.43;102097.84;5095258;27;46354;-77
2023/04/08 10:15:29;;;;;;;;;13.75;13.50;;;;;13.77;49.83;102096.75;5095127;27;45527;-73
2023/04/08 10:18:19;;;;;;;;;14.25;12.75;;;;;13.83;50.45;102096.50;5095590;27;45425;-75
2023/04/08 10:20:48;;;;;;;;;14.75;13.50;;;;;13.87;50.67;102095.44;5082650;27;45283;-76
2023/04/08 10:23:17;;;;;;;;;15.75;12.50;;;;;13.92;49.33;102086.25;5094967;27;45318;-76
2023/04/08 10:25:48;;;;;;;;;15.00;15.00;;;;;13.98;49.06;102077.94;5095178;27;45270;-75
2023/04/08 10:28:14;;;;;;;;;16.00;14.50;;;;;14.00;49.11;102083.25;5076772;27;45442;-76
2023/04/08 10:30:47;;;;;;;;;12.25;12.25;;;;;14.00;49.42;102083.25;5082248;27;45274;-75
2023/04/08 10:33:31;;;;;;;;;15.00;14.00;;;;;13.94;48.64;102059.25;5082242;27;45535;-76
2023/04/08 10:36:10;;;;;;;;;16.00;16.00;;;;;13.85;48.77;102048.81;5098855;27;45339;-76
2023/04/08 10:38:41;;;;;;;;;14.75;13.50;;;;;13.97;48.54;102061.81;5080644;27;45266;-75
2023/04/08 10:41:06;;;;;;;;;11.50;11.50;;;;;13.90;48.39;102044.13;5098511;27;45752;-75
2023/04/08 10:43:35;;;;;;;;;13.75;11.75;;;;;13.97;48.54;102043.81;5098338;27;45459;-75
2023/04/08 10:46:01;;;;;;;;;13.25;11.50;;;;;14.14;48.29;102061.13;5098631;27;45320;-75
2023/04/08 10:48:29;;;;;;;;;14.00;12.75;;;;;14.19;47.72;102062.72;5080301;27;45346;-76
2023/04/08 10:51:02;;;;;;;;;11.25;11.25;;;;;14.22;48.02;102059.91;5092304;27;45413;-77
2023/04/08 10:53:32;;;;;;;;;16.50;13.00;;;;;14.24;47.80;102054.44;5073299;27;47075;-76
2023/04/08 10:56:14;;;;;;;;;9.00;8.75;;;;;14.26;47.96;102044.47;5098570;27;45384;-76
2023/04/08 10:58:49;;;;;;;;;9.75;8.25;;;;;14.34;47.30;102045.03;5098279;27;45460;-76
2023/04/08 11:01:15;;;;;;;;;16.75;13.75;;;;;14.42;46.97;102050.16;5098313;27;45420;-74
2023/04/08 11:03:41;;;;;;;;;10.25;10.00;;;;;14.49;46.77;102043.56;5098242;27;46208;-76
2023/04/08 11:06:07;;;;;;;;;9.00;9.00;;;;;14.58;47.31;102046.75;5098123;27;45361;-74
2023/04/08 11:08:33;;;;;;;;;14.75;12.00;;;;;14.69;46.87;102044.50;5098198;27;45400;-74
2023/04/08 11:11:00;;;;;;;;;18.00;12.25;;;;;14.76;47.25;102037.88;5100012;27;45497;-76
2023/04/08 11:13:26;;;;;;;;;11.00;9.75;;;;;14.97;47.02;102035.22;5100845;27;46294;-77
2023/04/08 11:15:52;;;;;;;;;13.00;11.25;;;;;15.10;45.93;102036.41;5099425;27;45260;-77
2023/04/08 11:18:17;;;;;;;;;10.00;10.00;;;;;15.12;45.48;102019.22;5099636;27;45369;-76
2023/04/08 11:20:43;;;;;;;;;10.00;10.00;;;;;15.27;45.05;102014.06;5098192;27;45675;-77
2023/04/08 11:23:13;;;;;;;;;11.25;10.25;;;;;15.46;45.26;102029.38;5098054;27;46040;-77
2023/04/08 11:25:40;;;;;;;;;12.50;10.50;;;;;15.49;45.18;102006.72;5098109;27;45322;-76
2023/04/08 11:28:06;;;;;;;;;14.50;12.00;;;;;15.72;44.62;102021.91;5098337;27;45220;-78
2023/04/08 11:30:33;;;;;;;;;11.50;10.25;;;;;15.84;44.22;102008.66;5086025;27;45488;-76
2023/04/08 11:32:58;;;;;;;;;12.00;10.25;;;;;16.07;43.72;102013.00;5077390;27;46070;-74
2023/04/08 11:35:28;;;;;;;;;14.00;12.75;;;;;16.16;43.03;102004.41;5070813;27;45348;-78
2023/04/08 11:37:54;;;;;;;;;9.75;9.00;;;;;16.07;42.53;101961.59;5097640;27;45445;-76
2023/04/08 11:40:23;;;;;;;;;10.25;9.25;;;;;16.55;42.40;102019.63;5097363;27;45299;-75
2023/04/08 11:42:50;;;;;;;;;10.00;10.00;;;;;16.77;42.00;102020.31;5097717;27;45446;-76
2023/04/08 11:45:18;;;;;;;;;11.75;11.75;;;;;16.94;41.66;102011.31;5096805;27;45333;-79
2023/04/08 11:47:44;;;;;;;;;14.25;13.25;;;;;17.07;40.88;102014.25;5097630;27;45294;-75
2023/04/08 11:50:10;;;;;;;;;10.25;8.75;;;;;16.93;40.44;101967.09;5097718;27;45208;-76
2023/04/08 11:52:43;;;;;;;;;11.00;9.00;;;;;17.24;39.86;101993.44;5077903;27;45425;-77
2023/04/08 11:55:11;;;;;;;;;12.50;11.00;;;;;17.31;40.17;101991.28;5077204;27;45246;-75
2023/04/08 11:57:36;;;;;;;;;13.50;12.25;;;;;17.47;39.91;102005.75;5077614;28;45227;-76
2023/04/08 12:00:04;;;;;;;;;10.75;10.75;;;;;17.60;39.87;101998.69;5077223;28;45442;-77
2023/04/08 12:02:30;;;;;;;;;10.50;8.50;;;;;17.75;39.10;102003.31;5066054;27;47588;-75
2023/04/08 12:04:55;;;;;;;;;8.75;8.75;;;;;17.88;39.35;101984.47;5097220;27;45460;-75
2023/04/08 12:07:21;;;;;;;;;9.50;9.50;;;;;18.05;38.84;101992.53;5097462;27;45318;-76
2023/04/08 12:09:46;;;;;;;;;8.75;8.00;;;;;18.23;38.95;101995.16;5097231;27;45322;-76
2023/04/08 12:12:11;;;;;;;;;11.00;11.00;;;;;18.33;38.35;101986.41;5097287;27;45373;-76
2023/04/08 12:14:37;;;;;;;;;13.25;10.75;;;;;18.47;37.82;101988.28;5096998;27;45460;-76
2023/04/08 12:17:02;;;;;;;;;8.25;8.25;;;;;18.72;38.21;101995.88;5078993;27;45407;-77
2023/04/08 12:19:27;;;;;;;;;11.25;10.25;;;;;18.84;37.60;101995.16;5097153;27;45435;-77
2023/04/08 12:21:53;;;;;;;;;10.00;9.00;;;;;18.92;37.11;101979.25;5096747;27;48769;-77
2023/04/08 12:24:18;;;;;;;;;12.75;12.00;;;;;19.16;37.90;101990.44;5097040;27;45323;-75
2023/04/08 12:26:43;;;;;;;;;10.75;9.25;;;;;19.33;36.42;101986.69;5097018;27;45570;-75
2023/04/08 12:29:10;;;;;;;;;7.50;7.50;;;;;19.56;36.08;101978.00;5096670;27;45462;-76
2023/04/08 12:31:36;;;;;;;;;8.00;8.00;;;;;19.68;35.03;101966.31;5096276;27;47224;-75
2023/04/08 12:34:01;;;;;;;;;11.50;11.00;;;;;19.88;34.15;101975.91;5096909;27;45234;-76
2023/04/08 12:36:27;;;;;;;;;12.25;11.50;;;;;20.09;34.87;101987.22;5096906;27;45587;-76
2023/04/08 12:38:52;;;;;;;;;2.50;2.50;;;;;20.35;34.88;101981.81;5096834;27;45334;-75
2023/04/08 12:41:17;;;;;;;;;9.50;9.50;;;;;20.62;34.31;101984.53;5078484;27;47414;-76
2023/04/08 12:43:42;;;;;;;;;9.50;9.25;;;;;20.81;33.54;101953.28;5096744;27;45377;-77
2023/04/08 12:46:08;;;;;;;;;11.75;10.25;;;;;21.31;34.31;101974.31;5097113;27;45267;-76
2023/04/08 12:48:33;;;;;;;;;14.25;12.50;;;;;21.69;32.33;101977.84;5096918;27;45196;-74
2023/04/08 12:50:58;;;;;;;;;9.50;9.25;;;;;22.34;30.69;101963.94;5090511;27;45896;-77
2023/04/08 12:53:24;;;;;;;;;11.75;10.75;;;;;23.15;30.31;101969.44;5076382;28;45381;-75
2023/04/08 12:55:50;;;;;;;;;9.75;9.75;;;;;23.96;28.49;101955.56;5086102;27;46609;-76
2023/04/08 12:58:17;;;;;;;;;6.50;6.50;;;;;24.87;28.91;101961.47;5078297;27;45366;-76
2023/04/08 13:00:45;;;;;;;;;7.50;7.50;;;;;25.65;27.31;101956.47;5096016;27;46062;-74
2023/04/08 13:03:11;;;;;;;;;8.50;7.75;;;;;26.25;26.00;101942.59;5096327;27;45483;-74
2023/04/08 13:05:37;;;;;;;;;9.75;9.00;;;;;26.99;25.96;101947.56;5078148;27;45346;-75
2023/04/08 13:08:02;;;;;;;;;9.75;9.50;;;;;27.50;23.90;101939.72;5096119;27;45273;-75
2023/04/08 13:10:28;;;;;;;;;7.75;7.75;;;;;27.98;23.83;101921.25;5096062;27;45325;-76
2023/04/08 13:12:53;;;;;;;;;8.75;8.75;;;;;28.71;22.66;101933.03;5096213;27;45254;-76
2023/04/08 13:15:19;;;;;;;;;8.50;8.50;;;;;29.23;21.73;101939.50;5096100;27;45663;-75
2023/04/08 13:17:44;;;;;;;;;8.00;8.00;;;;;29.94;22.62;101936.47;5096288;27;45539;-78
2023/04/08 13:20:10;;;;;;;;;11.50;10.50;;;;;30.56;21.58;101936.97;5090292;27;51075;-75
2023/04/08 13:22:36;;;;;;;;;9.00;9.00;;;;;31.01;20.97;101944.75;5087781;27;45421;-77
2023/04/08 13:25:01;;;;;;;;;8.75;8.75;;;;;31.46;20.50;101935.88;5096037;27;45389;-75
2023/04/08 13:27:26;;;;;;;;;11.00;8.00;;;;;31.85;20.13;101920.13;5096024;27;45429;-76
2023/04/08 13:29:52;;;;;;;;;7.25;7.25;;;;;32.08;19.60;101936.81;5090287;27;46290;-75
2023/04/08 13:32:17;;;;;;;;;8.00;8.00;;;;;32.56;18.82;101937.59;5075567;28;45346;-74
2023/04/08 13:34:42;;;;;;;;;7.00;5.50;;;;;32.91;18.34;101936.97;5075494;28;45639;-76
2023/04/08 13:37:08;;;;;;;;;6.25;6.00;;;;;33.34;18.12;101940.03;5075858;28;45985;-74
2023/04/08 13:39:33;;;;;;;;;9.75;7.75;;;;;33.52;17.95;101931.31;5075082;27;51356;-76
2023/04/08 13:41:58;;;;;;;;;8.25;7.00;;;;;33.39;17.20;101921.72;5087519;27;45372;-75
2023/04/08 13:44:24;;;;;;;;;6.00;6.00;;;;;33.48;16.72;101927.19;5095564;27;45238;-76
2023/04/08 13:46:49;;;;;;;;;6.00;6.00;;;;;33.61;17.67;101919.00;5096021;27;45403;-76
2023/04/08 13:49:15;;;;;;;;;8.75;7.00;;;;;33.93;16.98;101927.00;5095611;27;46360;-77
2023/04/08 13:51:40;;;;;;;;;5.75;5.75;;;;;34.28;17.84;101919.72;5083931;27;45331;-75
2023/04/08 13:54:06;;;;;;;;;6.75;6.25;;;;;34.40;16.25;101895.00;5075317;28;45257;-75
2023/04/08 13:56:31;;;;;;;;;6.25;6.25;;;;;34.60;16.17;101909.13;5068345;27;46573;-75
2023/04/08 13:58:56;;;;;;;;;5.25;5.25;;;;;34.72;16.58;101885.22;5095459;27;45398;-74
2023/04/08 14:01:22;;;;;;;;;5.75;5.00;;;;;34.81;16.09;101893.25;5077324;27;45729;-76
2023/04/08 14:03:48;;;;;;;;;4.25;4.25;;;;;34.86;16.77;101903.81;5095538;27;45224;-78
2023/04/08 14:06:14;;;;;;;;;5.00;4.00;;;;;34.98;16.87;101898.53;5095597;27;45403;-77
2023/04/08 14:08:39;;;;;;;;;6.25;6.25;;;;;35.12;16.32;101894.78;5095031;27;45838;-76
2023/04/08 14:11:05;;;;;;;;;7.00;6.00;;;;;35.06;15.75;101892.78;5095778;27;45518;-77
2023/04/08 14:13:31;;;;;;;;;5.75;5.00;;;;;34.91;15.71;101892.91;5095417;27;45528;-75
2023/04/08 14:16:00;;;;;;;;;9.00;6.25;;;;;34.93;15.52;101896.38;5095442;27;45282;-76
2023/04/08 14:18:26;;;;;;;;;9.25;8.50;;;;;34.65;15.75;101874.00;5095229;27;45529;-77
2023/04/08 14:20:51;;;;;;;;;9.25;8.00;;;;;34.68;16.23;101887.56;5094976;27;45219;-76
2023/04/08 14:23:17;;;;;;;;;6.50;6.50;;;;;34.73;16.52;101886.94;5095224;27;45307;-76
2023/04/08 14:25:42;;;;;;;;;7.50;7.50;;;;;34.72;16.23;101885.22;5095261;27;48790;-75
2023/04/08 14:28:07;;;;;;;;;15.00;8.25;;;;;34.57;16.19;101870.50;5095031;27;45514;-75
2023/04/08 14:30:34;;;;;;;;;10.75;9.00;;;;;34.56;16.20;101869.66;5084250;27;45357;-79
2023/04/08 14:33:00;;;;;;;;;7.00;7.00;;;;;34.55;16.49;101887.41;5074675;28;45347;-76
2023/04/08 14:35:25;;;;;;;;;7.75;6.50;;;;;34.34;16.11;101866.03;5074632;28;45421;-78
2023/04/08 14:37:51;;;;;;;;;6.50;5.25;;;;;34.29;16.51;101867.66;5074359;28;46421;-76
2023/04/08 14:40:16;;;;;;;;;8.50;6.50;;;;;34.21;16.56;101863.06;5074417;27;45384;-76
2023/04/08 14:42:44;;;;;;;;;5.50;5.50;;;;;34.13;16.64;101882.66;5093162;27;45356;-78
2023/04/08 14:45:10;;;;;;;;;6.25;6.25;;;;;33.95;16.86;101879.47;5094833;27;45469;-76
2023/04/08 14:47:35;;;;;;;;;5.75;5.50;;;;;33.63;17.11;101878.84;5094643;27;46154;-74
2023/04/08 14:50:00;;;;;;;;;9.00;7.25;;;;;33.41;16.67;101871.50;5094865;27;45230;-76
2023/04/08 14:52:26;;;;;;;;;10.00;7.00;;;;;33.17;17.97;101880.09;5076453;27;45338;-76
2023/04/08 14:54:52;;;;;;;;;9.50;8.00;;;;;32.90;16.91;101859.38;5085775;27;46427;-75
2023/04/08 14:57:18;;;;;;;;;9.00;7.00;;;;;32.64;17.45;101855.06;5094759;27;45402;-76
2023/04/08 14:59:43;;;;;;;;;5.50;4.25;;;;;32.51;18.04;101865.94;5094687;27;45473;-76
2023/04/08 15:02:09;;;;;;;;;5.75;5.75;;;;;32.51;18.09;101857.59;5095179;27;45169;-74
2023/04/08 15:04:34;;;;;;;;;5.25;5.25;;;;;32.61;18.17;101861.00;5094842;27;45353;-75
2023/04/08 15:07:00;;;;;;;;;6.25;6.25;;;;;32.38;16.86;101875.94;5094637;27;46388;-78
2023/04/08 15:09:26;;;;;;;;;9.25;8.50;;;;;32.05;17.79;101855.88;5094735;27;45337;-75
2023/04/08 15:11:51;;;;;;;;;7.50;6.75;;;;;31.92;17.76;101864.78;5094822;27;45456;-75
2023/04/08 15:14:16;;;;;;;;;5.75;5.50;;;;;31.84;18.25;101884.25;5094583;27;45290;-76
2023/04/08 15:16:42;;;;;;;;;8.00;7.00;;;;;31.73;17.93;101862.50;5076313;27;47636;-76
2023/04/08 15:19:07;;;;;;;;;7.50;6.50;;;;;31.64;18.00;101874.66;5095884;27;45377;-76
2023/04/08 15:21:32;;;;;;;;;4.25;4.25;;;;;31.45;18.52;101859.28;5080668;27;45366;-75
2023/04/08 15:23:58;;;;;;;;;8.50;6.00;;;;;31.32;17.87;101853.44;5077145;28;52248;-77
2023/04/08 15:26:26;;;;;;;;;8.50;6.25;;;;;31.34;18.63;101870.75;5077474;28;46157;-77
2023/04/08 15:28:53;;;;;;;;;7.25;7.25;;;;;31.25;18.17;101866.28;5042511;28;46005;-74
2023/04/08 15:31:18;;;;;;;;;4.50;4.00;;;;;31.26;18.44;101868.88;5095551;27;45228;-75
2023/04/08 15:33:44;;;;;;;;;8.75;7.50;;;;;31.15;18.07;101853.50;5097680;27;45417;-77
2023/04/08 15:36:10;;;;;;;;;7.25;7.25;;;;;30.92;18.54;101871.88;5097695;27;45849;-75
2023/04/08 15:38:36;;;;;;;;;4.00;4.00;;;;;30.72;18.75;101863.06;5097526;27;45256;-76
2023/04/08 15:41:01;;;;;;;;;10.00;6.00;;;;;30.67;19.58;101879.34;5097777;27;45358;-76
2023/04/08 15:43:27;;;;;;;;;9.00;6.00;;;;;30.63;19.61;101864.13;5097462;27;45494;-74
2023/04/08 15:45:52;;;;;;;;;8.75;6.00;;;;;30.59;18.51;101871.06;5097471;27;45412;-75